createdAt,value
2018-03-08T00:00:03.310Z,0
2018-03-08T00:00:45.699Z,0
2018-03-08T00:01:26.093Z,0
2018-03-08T00:02:07.624Z,0
2018-03-08T00:02:48.403Z,0
2018-03-08T00:03:28.550Z,0
2018-03-08T00:04:09.106Z,0
2018-03-08T00:04:49.985Z,0
2018-03-08T00:05:30.629Z,0
2018-03-08T00:06:11.774Z,0
2018-03-08T00:06:52.193Z,0
2018-03-08T00:07:33.123Z,0
2018-03-08T00:08:13.555Z,0
2018-03-08T00:08:54.891Z,0
2018-03-08T00:09:36.207Z,0
2018-03-08T00:10:17.138Z,0
2018-03-08T00:10:57.891Z,0
2018-03-08T00:11:38.943Z,0
2018-03-08T00:12:19.586Z,0
2018-03-08T00:12:59.941Z,0
2018-03-08T00:13:41.319Z,0
2018-03-08T00:14:22.162Z,0
2018-03-08T00:15:03.376Z,0
2018-03-08T00:15:45.280Z,0
2018-03-08T00:16:25.976Z,0
2018-03-08T00:17:07.320Z,0
2018-03-08T00:17:47.841Z,0
2018-03-08T00:18:28.191Z,0
2018-03-08T00:19:08.723Z,0
2018-03-08T00:19:49.257Z,0
2018-03-08T00:20:29.930Z,0
2018-03-08T00:22:44.438Z,0
2018-03-08T00:23:25.009Z,0
2018-03-08T00:24:05.778Z,0
2018-03-08T00:24:47.058Z,0
2018-03-08T00:25:27.820Z,0
2018-03-08T00:26:08.139Z,0
2018-03-08T00:26:48.821Z,0
2018-03-08T00:27:29.726Z,0
2018-03-08T00:28:11.022Z,0
2018-03-08T00:28:52.062Z,0
2018-03-08T00:29:32.396Z,0
2018-03-08T00:30:14.573Z,0
2018-03-08T00:30:55.075Z,0
2018-03-08T00:31:37.459Z,0
2018-03-08T00:32:18.293Z,0
2018-03-08T00:32:58.764Z,0
2018-03-08T00:33:41.869Z,0
2018-03-08T00:34:23.264Z,0
2018-03-08T00:35:03.794Z,0
2018-03-08T00:35:45.254Z,0
2018-03-08T00:36:25.993Z,0
2018-03-08T00:37:06.791Z,0
2018-03-08T00:37:47.735Z,0
2018-03-08T00:38:28.002Z,0
2018-03-08T00:39:08.390Z,0
2018-03-08T00:39:50.553Z,0
2018-03-08T00:40:31.880Z,0
2018-03-08T00:41:13.104Z,0
2018-03-08T00:41:54.343Z,0
2018-03-08T00:42:35.610Z,0
2018-03-08T00:43:17.271Z,0
2018-03-08T00:43:57.776Z,0
2018-03-08T00:44:38.150Z,0
2018-03-08T00:45:19.491Z,0
2018-03-08T00:45:59.958Z,0
2018-03-08T00:46:40.342Z,0
2018-03-08T00:47:20.852Z,0
2018-03-08T00:48:01.786Z,0
2018-03-08T00:48:42.342Z,0
2018-03-08T00:49:25.629Z,0
2018-03-08T00:50:07.505Z,0
2018-03-08T00:50:48.264Z,0
2018-03-08T00:51:29.918Z,0
2018-03-08T00:52:10.411Z,0
2018-03-08T00:52:51.746Z,0
2018-03-08T00:55:21.554Z,0
2018-03-08T00:56:02.292Z,0
2018-03-08T00:56:42.995Z,0
2018-03-08T00:57:23.726Z,0
2018-03-08T00:58:04.588Z,0
2018-03-08T00:58:45.753Z,0
2018-03-08T00:59:27.844Z,0
2018-03-08T01:00:08.383Z,0
2018-03-08T01:00:49.018Z,0
2018-03-08T01:01:29.464Z,0
2018-03-08T01:02:09.923Z,0
2018-03-08T01:02:51.265Z,0
2018-03-08T01:03:32.829Z,0
2018-03-08T01:04:14.395Z,0
2018-03-08T01:04:54.564Z,0
2018-03-08T01:05:39.254Z,0
2018-03-08T01:06:19.752Z,0
2018-03-08T01:07:00.813Z,0
2018-03-08T01:07:41.523Z,0
2018-03-08T01:08:22.609Z,0
2018-03-08T01:09:03.529Z,0
2018-03-08T01:09:44.029Z,0
2018-03-08T01:10:24.802Z,0
2018-03-08T01:11:04.871Z,0
2018-03-08T01:11:45.328Z,0
2018-03-08T01:12:27.735Z,0
2018-03-08T01:13:09.228Z,0
2018-03-08T01:13:51.908Z,0
2018-03-08T01:14:33.045Z,0
2018-03-08T01:15:14.331Z,0
2018-03-08T01:15:55.973Z,0
2018-03-08T01:16:36.436Z,0
2018-03-08T01:17:16.812Z,0
2018-03-08T01:17:57.208Z,0
2018-03-08T01:18:39.359Z,0
2018-03-08T01:19:20.989Z,0
2018-03-08T01:20:02.351Z,0
2018-03-08T01:20:43.211Z,0
2018-03-08T01:21:23.733Z,0
2018-03-08T01:22:04.537Z,0
2018-03-08T01:22:45.192Z,0
2018-03-08T01:23:25.571Z,0
2018-03-08T01:24:08.400Z,0
2018-03-08T01:24:50.646Z,0
2018-03-08T01:25:31.023Z,0
2018-03-08T01:26:12.479Z,0
2018-03-08T01:26:53.295Z,0
2018-03-08T01:27:34.376Z,0
2018-03-08T01:28:15.365Z,0
2018-03-08T01:28:55.927Z,0
2018-03-08T01:29:36.559Z,0
2018-03-08T01:30:19.616Z,0
2018-03-08T01:31:02.750Z,0
2018-03-08T01:33:39.172Z,0
2018-03-08T01:34:22.445Z,0
2018-03-08T01:35:04.130Z,0
2018-03-08T01:35:47.769Z,0
2018-03-08T01:36:31.410Z,0
2018-03-08T01:37:11.967Z,0
2018-03-08T01:37:53.113Z,0
2018-03-08T01:38:34.603Z,0
2018-03-08T01:39:17.562Z,0
2018-03-08T01:39:59.014Z,0
2018-03-08T01:40:39.635Z,0
2018-03-08T01:41:23.237Z,0
2018-03-08T01:42:06.207Z,0
2018-03-08T01:42:48.660Z,0
2018-03-08T01:43:30.968Z,0
2018-03-08T01:44:11.278Z,0
2018-03-08T01:44:51.812Z,0
2018-03-08T01:45:35.227Z,0
2018-03-08T01:46:19.111Z,0
2018-03-08T01:47:01.067Z,0
2018-03-08T01:47:41.671Z,0
2018-03-08T01:48:22.054Z,0
2018-03-08T01:49:08.263Z,0
2018-03-08T01:49:46.346Z,0
2018-03-08T01:50:28.490Z,0
2018-03-08T01:51:11.477Z,0
2018-03-08T01:51:51.784Z,0
2018-03-08T01:52:32.337Z,0
2018-03-08T01:53:16.702Z,0
2018-03-08T01:53:57.608Z,0
2018-03-08T01:54:38.146Z,0
2018-03-08T01:55:20.547Z,0
2018-03-08T01:56:01.653Z,0
2018-03-08T01:56:42.656Z,0
2018-03-08T01:57:26.980Z,0
2018-03-08T01:58:08.139Z,0
2018-03-08T01:58:48.150Z,0
2018-03-08T01:59:28.572Z,0
2018-03-08T02:00:09.037Z,0
2018-03-08T02:00:49.680Z,0
2018-03-08T02:01:30.532Z,0
2018-03-08T02:02:11.269Z,0
2018-03-08T02:02:52.341Z,0
2018-03-08T02:03:35.218Z,0
2018-03-08T02:04:15.843Z,0
2018-03-08T02:04:56.962Z,0
2018-03-08T02:05:40.362Z,0
2018-03-08T02:06:22.741Z,0
2018-03-08T02:07:04.132Z,0
2018-03-08T02:07:45.538Z,0
2018-03-08T02:08:25.953Z,0
2018-03-08T02:09:08.071Z,0
2018-03-08T02:09:49.398Z,0
2018-03-08T02:10:31.168Z,0
2018-03-08T02:11:11.737Z,0
2018-03-08T02:11:52.179Z,0
2018-03-08T02:12:32.625Z,0
2018-03-08T02:13:13.889Z,0
2018-03-08T02:13:55.501Z,0
2018-03-08T02:14:36.251Z,0
2018-03-08T02:15:16.820Z,0
2018-03-08T02:15:58.387Z,0
2018-03-08T02:19:15.888Z,0
2018-03-08T02:19:56.309Z,0
2018-03-08T02:20:36.727Z,0
2018-03-08T02:21:17.160Z,0
2018-03-08T02:21:57.595Z,0
2018-03-08T02:22:37.941Z,0
2018-03-08T02:23:18.328Z,0
2018-03-08T02:23:58.732Z,0
2018-03-08T02:24:39.098Z,0
2018-03-08T02:25:19.478Z,0
2018-03-08T02:25:59.839Z,0
2018-03-08T02:26:40.269Z,0
2018-03-08T02:27:20.638Z,0
2018-03-08T02:28:01.068Z,0
2018-03-08T02:28:41.468Z,0
2018-03-08T02:29:21.844Z,0
2018-03-08T02:30:02.217Z,0
2018-03-08T02:30:42.643Z,0
2018-03-08T02:31:23.038Z,0
2018-03-08T02:32:03.451Z,0
2018-03-08T02:32:43.880Z,0
2018-03-08T02:33:24.264Z,0
2018-03-08T02:34:04.699Z,0
2018-03-08T02:34:45.139Z,0
2018-03-08T02:35:25.436Z,0
2018-03-08T02:36:05.922Z,0
2018-03-08T02:36:46.349Z,0
2018-03-08T02:37:26.766Z,0
2018-03-08T02:38:07.114Z,0
2018-03-08T02:38:47.486Z,0
2018-03-08T02:39:27.912Z,0
2018-03-08T02:40:08.274Z,0
2018-03-08T02:40:48.676Z,0
2018-03-08T02:41:29.052Z,0
2018-03-08T02:42:09.507Z,0
2018-03-08T02:42:49.865Z,0
2018-03-08T02:43:30.338Z,0
2018-03-08T02:44:10.714Z,0
2018-03-08T02:44:51.135Z,0
2018-03-08T02:45:31.472Z,0
2018-03-08T02:46:11.889Z,0
2018-03-08T02:46:52.317Z,0
2018-03-08T02:47:32.739Z,0
2018-03-08T02:48:13.118Z,0
2018-03-08T02:48:53.523Z,0
2018-03-08T02:49:33.884Z,0
2018-03-08T02:50:14.278Z,0
2018-03-08T02:50:54.686Z,0
2018-03-08T02:51:35.126Z,0
2018-03-08T02:52:15.552Z,0
2018-03-08T02:52:55.902Z,0
2018-03-08T02:53:36.290Z,0
2018-03-08T02:54:16.657Z,0
2018-03-08T02:54:57.106Z,0
2018-03-08T02:55:37.476Z,0
2018-03-08T02:56:17.848Z,0
2018-03-08T02:56:58.304Z,0
2018-03-08T02:57:38.678Z,0
2018-03-08T02:58:19.080Z,0
2018-03-08T02:58:59.482Z,0
2018-03-08T02:59:39.948Z,0
2018-03-08T03:00:20.317Z,0
2018-03-08T03:01:00.707Z,0
2018-03-08T03:01:41.100Z,0
2018-03-08T03:02:21.484Z,0
2018-03-08T03:03:01.913Z,0
2018-03-08T03:03:42.338Z,0
2018-03-08T03:04:22.642Z,0
2018-03-08T03:05:03.100Z,0
2018-03-08T03:05:43.460Z,0
2018-03-08T03:06:23.898Z,0
2018-03-08T03:07:04.224Z,0
2018-03-08T03:07:44.632Z,0
2018-03-08T03:08:25.026Z,0
2018-03-08T03:09:05.388Z,0
2018-03-08T03:09:45.744Z,0
2018-03-08T03:10:26.149Z,0
2018-03-08T03:11:06.538Z,0
2018-03-08T03:11:46.947Z,0
2018-03-08T03:12:27.348Z,0
2018-03-08T03:13:07.720Z,0
2018-03-08T03:13:48.080Z,0
2018-03-08T03:14:28.491Z,0
2018-03-08T03:15:08.885Z,0
2018-03-08T03:15:49.296Z,0
2018-03-08T03:16:29.643Z,0
2018-03-08T03:17:10.094Z,0
2018-03-08T03:17:50.445Z,0
2018-03-08T03:18:30.867Z,0
2018-03-08T03:19:11.273Z,0
2018-03-08T03:19:51.666Z,0
2018-03-08T03:20:32.054Z,0
2018-03-08T03:21:12.515Z,0
2018-03-08T03:21:52.843Z,0
2018-03-08T03:22:33.300Z,0
2018-03-08T03:23:13.729Z,0
2018-03-08T03:23:54.080Z,0
2018-03-08T03:24:34.417Z,0
2018-03-08T03:25:14.927Z,0
2018-03-08T03:25:55.345Z,0
2018-03-08T03:26:35.675Z,0
2018-03-08T03:27:16.143Z,0
2018-03-08T03:27:56.464Z,0
2018-03-08T03:28:36.912Z,0
2018-03-08T03:29:17.312Z,0
2018-03-08T03:29:57.704Z,0
2018-03-08T03:30:38.103Z,0
2018-03-08T03:31:18.532Z,0
2018-03-08T03:31:58.938Z,0
2018-03-08T03:32:39.302Z,0
2018-03-08T03:33:19.700Z,0
2018-03-08T03:34:00.085Z,0
2018-03-08T03:34:40.423Z,0
2018-03-08T03:35:20.837Z,0
2018-03-08T03:36:01.184Z,0
2018-03-08T03:36:41.594Z,0
2018-03-08T03:37:22.051Z,0
2018-03-08T03:38:02.444Z,0
2018-03-08T03:38:42.863Z,0
2018-03-08T03:39:23.278Z,0
2018-03-08T03:40:03.669Z,0
2018-03-08T03:40:44.054Z,0
2018-03-08T03:41:24.407Z,0
2018-03-08T03:42:04.848Z,0
2018-03-08T03:42:45.214Z,0
2018-03-08T03:43:25.659Z,0
2018-03-08T03:44:06.128Z,0
2018-03-08T03:44:46.492Z,0
2018-03-08T03:45:26.940Z,0
2018-03-08T03:46:07.285Z,0
2018-03-08T03:46:47.814Z,0
2018-03-08T03:47:28.151Z,0
2018-03-08T03:48:08.630Z,0
2018-03-08T03:48:49.031Z,0
2018-03-08T03:49:29.376Z,0
2018-03-08T03:50:09.824Z,0
2018-03-08T03:50:50.161Z,0
2018-03-08T03:51:30.562Z,0
2018-03-08T03:52:11.019Z,0
2018-03-08T03:52:51.432Z,0
2018-03-08T03:53:31.764Z,0
2018-03-08T03:54:12.211Z,0
2018-03-08T03:54:52.579Z,0
2018-03-08T03:55:32.929Z,0
2018-03-08T03:56:13.350Z,0
2018-03-08T03:56:53.757Z,0
2018-03-08T03:57:34.326Z,0
2018-03-08T03:58:14.691Z,0
2018-03-08T03:58:55.072Z,0
2018-03-08T03:59:35.463Z,0
2018-03-08T04:00:15.936Z,0
2018-03-08T04:00:56.302Z,0
2018-03-08T04:01:36.762Z,0
2018-03-08T04:02:17.160Z,0
2018-03-08T04:02:57.563Z,0
2018-03-08T04:03:37.931Z,0
2018-03-08T04:04:18.423Z,0
2018-03-08T04:04:58.807Z,0
2018-03-08T04:05:39.311Z,0
2018-03-08T04:06:19.836Z,0
2018-03-08T04:07:00.250Z,0
2018-03-08T04:07:40.653Z,0
2018-03-08T04:08:21.039Z,0
2018-03-08T04:09:01.485Z,0
2018-03-08T04:47:08.650Z,0
2018-03-08T04:47:48.525Z,0
2018-03-08T04:48:29.023Z,0
2018-03-08T04:49:09.754Z,0
2018-03-08T04:51:24.039Z,0
2018-03-08T04:52:04.333Z,0
2018-03-08T04:52:44.758Z,0
2018-03-08T04:53:25.135Z,0
2018-03-08T04:54:05.498Z,0
2018-03-08T04:54:45.884Z,0
2018-03-08T04:55:26.322Z,0
2018-03-08T04:56:06.738Z,0
2018-03-08T04:56:47.040Z,0
2018-03-08T04:57:27.478Z,0
2018-03-08T04:58:07.807Z,0
2018-03-08T04:58:48.170Z,0
2018-03-08T04:59:28.678Z,0
2018-03-08T05:00:09.068Z,0
2018-03-08T05:00:49.557Z,0
2018-03-08T05:01:29.865Z,0
2018-03-08T05:02:10.298Z,0
2018-03-08T05:02:50.711Z,0
2018-03-08T05:03:31.153Z,0
2018-03-08T05:04:11.481Z,0
2018-03-08T05:04:51.918Z,0
2018-03-08T05:05:32.309Z,0
2018-03-08T05:06:12.691Z,0
2018-03-08T05:06:53.135Z,0
2018-03-08T05:07:33.542Z,0
2018-03-08T05:08:13.907Z,0
2018-03-08T05:08:54.759Z,0
2018-03-08T05:09:35.064Z,0
2018-03-08T05:10:15.593Z,0
2018-03-08T05:10:55.997Z,0
2018-03-08T05:11:36.410Z,0
2018-03-08T05:12:16.779Z,0
2018-03-08T05:12:57.190Z,0
2018-03-08T05:13:37.585Z,0
2018-03-08T05:14:18.050Z,0
2018-03-08T05:14:58.400Z,0
2018-03-08T05:15:38.893Z,0
2018-03-08T05:16:19.308Z,0
2018-03-08T05:16:59.683Z,0
2018-03-08T05:17:40.070Z,0
2018-03-08T05:18:20.501Z,0
2018-03-08T05:19:00.840Z,0
2018-03-08T05:19:41.282Z,0
2018-03-08T05:20:21.717Z,0
2018-03-08T05:21:02.109Z,0
2018-03-08T05:21:42.465Z,0
2018-03-08T05:22:22.879Z,0
2018-03-08T05:23:03.347Z,0
2018-03-08T05:23:43.806Z,0
2018-03-08T05:24:24.136Z,0
2018-03-08T05:25:04.513Z,0
2018-03-08T05:25:44.916Z,0
2018-03-08T05:26:25.284Z,0
2018-03-08T05:27:05.688Z,0
2018-03-08T05:27:46.182Z,0
2018-03-08T05:28:26.543Z,0
2018-03-08T05:29:06.934Z,0
2018-03-08T05:29:47.389Z,0
2018-03-08T05:30:27.735Z,0
2018-03-08T05:31:08.143Z,0
2018-03-08T05:31:48.540Z,0
2018-03-08T05:32:28.918Z,0
2018-03-08T05:33:09.312Z,4
2018-03-08T05:33:49.767Z,0
2018-03-08T05:34:30.120Z,0
2018-03-08T05:35:10.434Z,4
2018-03-08T05:35:50.886Z,4
2018-03-08T05:36:31.179Z,0
2018-03-08T05:37:11.671Z,4
2018-03-08T05:37:52.063Z,0
2018-03-08T05:38:32.491Z,4
2018-03-08T05:39:12.960Z,4
2018-03-08T05:39:53.298Z,8
2018-03-08T05:40:33.743Z,8
2018-03-08T05:41:14.201Z,8
2018-03-08T05:41:54.531Z,8
2018-03-08T05:42:34.979Z,8
2018-03-08T05:43:15.347Z,8
2018-03-08T05:43:55.696Z,12
2018-03-08T05:44:36.125Z,12
2018-03-08T05:45:17.045Z,12
2018-03-08T05:45:57.463Z,16
2018-03-08T05:46:37.827Z,16
2018-03-08T05:47:18.204Z,16
2018-03-08T05:47:58.657Z,20
2018-03-08T05:48:39.052Z,24
2018-03-08T05:49:19.434Z,24
2018-03-08T05:49:59.861Z,28
2018-03-08T05:50:40.183Z,28
2018-03-08T05:51:20.663Z,32
2018-03-08T05:52:01.080Z,36
2018-03-08T05:52:41.515Z,36
2018-03-08T05:53:21.961Z,40
2018-03-08T05:54:02.274Z,48
2018-03-08T05:54:42.732Z,48
2018-03-08T05:55:23.160Z,52
2018-03-08T05:56:03.613Z,60
2018-03-08T05:56:44.030Z,60
2018-03-08T05:57:24.424Z,68
2018-03-08T05:58:04.750Z,72
2018-03-08T05:58:45.274Z,72
2018-03-08T05:59:25.688Z,80
2018-03-08T06:00:06.211Z,88
2018-03-08T06:00:46.643Z,92
2018-03-08T06:01:26.956Z,100
2018-03-08T06:02:07.394Z,104
2018-03-08T06:02:47.780Z,112
2018-03-08T06:03:28.209Z,120
2018-03-08T06:04:08.664Z,124
2018-03-08T06:04:49.030Z,132
2018-03-08T06:05:29.434Z,136
2018-03-08T06:06:10.767Z,144
2018-03-08T06:06:50.215Z,152
2018-03-08T06:07:30.655Z,160
2018-03-08T06:08:11.242Z,168
2018-03-08T06:08:53.419Z,176
2018-03-08T06:09:33.850Z,184
2018-03-08T06:10:14.357Z,196
2018-03-08T06:10:54.683Z,204
2018-03-08T06:11:35.219Z,212
2018-03-08T06:12:15.726Z,220
2018-03-08T06:12:56.027Z,228
2018-03-08T06:13:36.538Z,240
2018-03-08T06:14:16.918Z,252
2018-03-08T06:14:57.361Z,264
2018-03-08T06:15:37.781Z,280
2018-03-08T06:16:18.125Z,296
2018-03-08T06:16:58.541Z,320
2018-03-08T06:17:38.888Z,340
2018-03-08T06:18:19.270Z,344
2018-03-08T06:18:59.677Z,396
2018-03-08T06:19:40.121Z,476
2018-03-08T06:20:20.540Z,540
2018-03-08T06:21:00.955Z,656
2018-03-08T06:21:41.942Z,740
2018-03-08T06:22:21.966Z,796
2018-03-08T06:23:02.365Z,856
2018-03-08T06:23:42.851Z,928
2018-03-08T06:24:23.315Z,992
2018-03-08T06:25:03.654Z,1092
2018-03-08T06:25:44.055Z,1188
2018-03-08T06:26:24.451Z,1284
2018-03-08T06:27:04.890Z,1364
2018-03-08T06:27:45.286Z,1420
2018-03-08T06:28:25.741Z,1520
2018-03-08T06:29:06.161Z,1640
2018-03-08T06:29:46.555Z,1728
2018-03-08T06:30:26.919Z,1840
2018-03-08T06:31:07.558Z,2000
2018-03-08T06:31:47.878Z,2088
2018-03-08T06:32:28.293Z,2168
2018-03-08T06:33:08.724Z,2280
2018-03-08T06:33:49.186Z,2420
2018-03-08T06:34:29.535Z,2556
2018-03-08T06:35:09.921Z,2572
2018-03-08T06:35:50.217Z,2652
2018-03-08T06:36:30.620Z,2748
2018-03-08T06:37:11.061Z,2812
2018-03-08T06:37:51.464Z,2936
2018-03-08T06:38:32.593Z,2988
2018-03-08T06:41:04.661Z,3576
2018-03-08T06:41:44.852Z,3748
2018-03-08T06:42:26.372Z,3848
2018-03-08T06:43:06.798Z,3940
2018-03-08T06:43:47.222Z,4040
2018-03-08T06:44:27.631Z,3992
2018-03-08T06:45:08.018Z,4148
2018-03-08T06:45:48.467Z,4224
2018-03-08T06:46:28.951Z,4296
2018-03-08T06:47:09.255Z,4484
2018-03-08T06:47:49.891Z,4544
2018-03-08T06:48:30.399Z,4852
2018-03-08T06:49:10.721Z,4960
2018-03-08T06:49:51.115Z,5180
2018-03-08T06:50:31.812Z,5360
2018-03-08T06:51:12.049Z,5564
2018-03-08T06:51:52.746Z,5724
2018-03-08T06:52:33.218Z,5888
2018-03-08T06:53:13.622Z,4004
2018-03-08T06:53:54.062Z,4420
2018-03-08T06:54:34.477Z,6284
2018-03-08T06:55:14.953Z,6168
2018-03-08T06:55:55.503Z,6476
2018-03-08T06:56:35.904Z,5316
2018-03-08T06:57:16.317Z,3192
2018-03-08T06:57:56.896Z,1860
2018-03-08T06:58:37.169Z,1768
2018-03-08T06:59:17.720Z,3112
2018-03-08T06:59:58.125Z,3424
2018-03-08T07:00:38.518Z,6612
2018-03-08T07:01:19.561Z,7168
2018-03-08T07:02:00.064Z,7240
2018-03-08T07:02:40.451Z,7484
2018-03-08T07:03:20.904Z,7724
2018-03-08T07:04:01.361Z,8108
2018-03-08T07:04:42.013Z,7952
2018-03-08T07:05:22.643Z,8380
2018-03-08T07:06:02.859Z,8956
2018-03-08T07:06:43.506Z,8976
2018-03-08T07:07:24.506Z,8368
2018-03-08T07:08:04.393Z,7808
2018-03-08T07:08:45.046Z,7424
2018-03-08T07:09:25.414Z,7676
2018-03-08T07:10:05.978Z,8200
2018-03-08T07:10:46.455Z,8708
2018-03-08T07:11:26.748Z,7244
2018-03-08T07:12:07.104Z,8956
2018-03-08T07:12:47.504Z,9020
2018-03-08T07:13:28.010Z,9292
2018-03-08T07:14:08.528Z,9752
2018-03-08T07:14:48.998Z,10384
2018-03-08T07:15:29.378Z,11584
2018-03-08T07:16:10.800Z,12704
2018-03-08T07:16:51.174Z,12832
2018-03-08T07:17:31.778Z,11116
2018-03-08T07:18:12.669Z,14208
2018-03-08T07:18:53.060Z,13856
2018-03-08T07:19:33.702Z,13536
2018-03-08T07:20:14.033Z,13472
2018-03-08T07:20:54.438Z,13088
2018-03-08T07:21:34.822Z,6788
2018-03-08T07:22:15.270Z,11712
2018-03-08T07:22:55.945Z,9456
2018-03-08T07:23:36.186Z,6932
2018-03-08T07:24:16.591Z,6364
2018-03-08T07:24:56.994Z,6212
2018-03-08T07:25:37.469Z,6156
2018-03-08T07:26:18.184Z,6104
2018-03-08T07:26:58.700Z,6348
2018-03-08T07:27:39.488Z,6568
2018-03-08T07:28:19.977Z,6676
2018-03-08T07:29:00.666Z,6924
2018-03-08T07:29:45.978Z,6808
2018-03-08T07:30:27.194Z,6632
2018-03-08T07:31:08.445Z,6960
2018-03-08T07:31:48.892Z,6716
2018-03-08T07:32:29.369Z,6216
2018-03-08T07:33:09.747Z,5524
2018-03-08T07:33:50.345Z,5360
2018-03-08T07:34:33.157Z,5444
2018-03-08T07:35:13.634Z,5580
2018-03-08T07:35:54.049Z,5836
2018-03-08T07:36:38.240Z,6008
2018-03-08T07:37:19.796Z,6148
2018-03-08T07:37:59.773Z,6108
2018-03-08T07:38:40.470Z,6064
2018-03-08T07:39:20.863Z,5828
2018-03-08T07:40:01.514Z,5668
2018-03-08T07:40:42.222Z,5348
2018-03-08T07:41:22.480Z,5264
2018-03-08T07:42:02.899Z,5184
2018-03-08T07:42:43.383Z,5248
2018-03-08T07:43:23.740Z,5332
2018-03-08T07:44:05.195Z,5420
2018-03-08T07:44:45.334Z,5496
2018-03-08T07:45:25.811Z,5600
2018-03-08T07:46:07.093Z,5672
2018-03-08T07:46:47.534Z,5940
2018-03-08T07:47:28.123Z,6048
2018-03-08T07:48:09.491Z,5788
2018-03-08T07:48:52.019Z,6028
2018-03-08T07:49:31.831Z,6196
2018-03-08T07:50:18.941Z,6572
2018-03-08T07:50:59.318Z,6964
2018-03-08T07:51:40.261Z,7040
2018-03-08T07:52:21.364Z,7012
2018-03-08T07:54:58.029Z,2900
2018-03-08T07:55:39.975Z,2724
2018-03-08T07:56:21.341Z,2824
2018-03-08T07:57:01.962Z,3056
2018-03-08T07:57:42.847Z,5108
2018-03-08T07:58:23.297Z,5972
2018-03-08T07:59:03.964Z,3224
2018-03-08T07:59:44.702Z,3944
2018-03-08T08:00:26.430Z,5692
2018-03-08T08:01:07.166Z,2988
2018-03-08T08:01:47.937Z,2660
2018-03-08T08:02:38.207Z,2380
2018-03-08T08:03:17.408Z,2176
2018-03-08T08:03:58.075Z,2040
2018-03-08T08:04:39.542Z,1916
2018-03-08T08:05:19.776Z,1808
2018-03-08T08:06:00.196Z,1700
2018-03-08T08:06:46.001Z,1604
2018-03-08T08:07:27.078Z,1540
2018-03-08T08:08:07.412Z,1488
2018-03-08T08:08:48.023Z,1436
2018-03-08T08:09:28.950Z,1392
2018-03-08T08:10:12.567Z,1356
2018-03-08T08:10:52.974Z,1324
2018-03-08T08:11:34.975Z,1296
2018-03-08T08:12:15.496Z,1272
2018-03-08T08:12:56.171Z,1240
2018-03-08T08:13:37.611Z,1208
2018-03-08T08:14:18.712Z,1180
2018-03-08T08:14:59.814Z,1152
2018-03-08T08:15:40.297Z,1124
2018-03-08T08:16:21.182Z,1084
2018-03-08T08:17:01.353Z,1064
2018-03-08T08:17:41.832Z,1060
2018-03-08T08:18:22.639Z,1096
2018-03-08T08:19:03.055Z,1120
2018-03-08T08:19:43.732Z,1124
2018-03-08T08:20:25.015Z,1152
2018-03-08T08:21:05.506Z,1196
2018-03-08T08:21:45.926Z,1232
2018-03-08T08:22:26.409Z,1236
2018-03-08T08:23:07.905Z,1236
2018-03-08T08:23:48.280Z,1212
2018-03-08T08:24:28.915Z,1192
2018-03-08T08:25:14.282Z,1180
2018-03-08T08:25:54.767Z,1160
2018-03-08T08:26:35.221Z,1116
2018-03-08T08:27:16.166Z,1064
2018-03-08T08:27:58.366Z,1020
2018-03-08T08:28:38.739Z,976
2018-03-08T08:29:19.162Z,924
2018-03-08T08:30:00.697Z,868
2018-03-08T08:30:42.017Z,812
2018-03-08T08:36:30.155Z,784
2018-03-08T08:37:27.141Z,792
2018-03-08T08:38:59.672Z,796
2018-03-08T08:39:40.165Z,816
2018-03-08T08:40:20.582Z,844
2018-03-08T08:41:01.666Z,880
2018-03-08T08:41:42.674Z,900
2018-03-08T08:42:25.851Z,900
2018-03-08T08:43:07.906Z,908
2018-03-08T08:43:48.709Z,908
2018-03-08T08:44:30.563Z,936
2018-03-08T08:45:10.831Z,980
2018-03-08T08:45:53.355Z,1032
2018-03-08T08:46:35.043Z,1080
2018-03-08T08:47:15.878Z,1088
2018-03-08T08:47:56.666Z,1092
2018-03-08T08:48:37.856Z,1080
2018-03-08T08:49:17.909Z,1032
2018-03-08T08:49:58.317Z,1012
2018-03-08T08:50:38.622Z,1028
2018-03-08T08:51:19.055Z,1064
2018-03-08T08:52:01.696Z,1116
2018-03-08T08:52:41.915Z,1128
2018-03-08T08:53:22.345Z,1088
2018-03-08T08:54:03.655Z,1032
2018-03-08T08:54:44.154Z,976
2018-03-08T08:55:24.745Z,944
2018-03-08T08:56:09.513Z,948
2018-03-08T08:56:50.882Z,992
2018-03-08T08:57:31.391Z,1036
2018-03-08T08:58:11.823Z,1068
2018-03-08T08:58:52.275Z,1108
2018-03-08T08:59:32.685Z,1148
2018-03-08T09:00:13.444Z,1180
2018-03-08T09:00:54.361Z,1200
2018-03-08T09:01:34.416Z,1184
2018-03-08T09:02:18.837Z,1148
2018-03-08T09:02:59.101Z,1132
2018-03-08T09:03:39.599Z,1132
2018-03-08T09:04:20.309Z,1124
2018-03-08T09:05:02.948Z,1116
2018-03-08T09:05:43.454Z,1132
2018-03-08T09:06:24.517Z,1176
2018-03-08T09:07:23.648Z,1244
2018-03-08T09:08:04.257Z,1300
2018-03-08T09:08:44.916Z,1360
2018-03-08T09:09:25.534Z,1436
2018-03-08T09:10:05.981Z,1472
2018-03-08T09:11:29.325Z,1588
2018-03-08T09:12:09.852Z,1664
2018-03-08T09:12:50.471Z,1708
2018-03-08T09:13:30.884Z,1724
2018-03-08T09:14:14.941Z,1740
2018-03-08T09:15:06.350Z,1776
2018-03-08T09:16:07.396Z,1832
2018-03-08T09:16:50.818Z,1928
2018-03-08T09:17:30.665Z,1928
2018-03-08T09:18:11.499Z,1900
2018-03-08T09:18:51.920Z,1880
2018-03-08T09:19:34.288Z,1880
2018-03-08T09:20:15.392Z,1896
2018-03-08T09:20:56.623Z,1920
2018-03-08T09:21:41.124Z,1940
2018-03-08T09:22:21.702Z,1968
2018-03-08T09:23:02.776Z,1956
2018-03-08T09:23:43.692Z,2000
2018-03-08T09:24:25.929Z,1976
2018-03-08T09:25:06.684Z,1944
2018-03-08T09:25:47.131Z,1912
2018-03-08T09:26:27.616Z,1888
2018-03-08T09:27:09.252Z,1872
2018-03-08T09:27:51.705Z,1908
2018-03-08T09:28:31.941Z,1876
2018-03-08T09:29:13.025Z,1880
2018-03-08T09:29:53.860Z,1876
2018-03-08T09:30:33.911Z,1880
2018-03-08T09:31:15.189Z,1892
2018-03-08T09:31:55.570Z,1936
2018-03-08T09:32:36.203Z,1984
2018-03-08T09:33:16.798Z,1956
2018-03-08T09:33:57.288Z,1908
2018-03-08T09:34:41.810Z,1740
2018-03-08T09:35:22.718Z,1796
2018-03-08T09:36:03.354Z,1784
2018-03-08T09:36:44.354Z,1792
2018-03-08T09:37:26.085Z,1824
2018-03-08T09:38:07.708Z,1836
2018-03-08T09:38:51.371Z,1836
2018-03-08T09:39:32.263Z,1836
2018-03-08T09:40:12.752Z,1804
2018-03-08T09:40:53.368Z,1768
2018-03-08T09:41:34.475Z,1752
2018-03-08T09:42:14.754Z,1744
2018-03-08T09:42:55.303Z,1784
2018-03-08T09:43:35.894Z,1828
2018-03-08T09:44:20.928Z,1848
2018-03-08T09:45:01.330Z,1824
2018-03-08T09:45:41.782Z,1776
2018-03-08T09:46:22.496Z,1720
2018-03-08T09:47:03.296Z,1684
2018-03-08T09:47:43.820Z,1648
2018-03-08T09:48:24.738Z,1644
2018-03-08T09:49:05.122Z,1656
2018-03-08T09:49:46.136Z,1676
2018-03-08T09:50:26.540Z,1652
2018-03-08T09:51:07.229Z,1636
2018-03-08T09:51:47.792Z,1620
2018-03-08T09:52:28.373Z,1596
2018-03-08T09:53:08.773Z,1568
2018-03-08T09:53:49.891Z,1532
2018-03-08T09:54:29.708Z,1508
2018-03-08T09:55:10.381Z,1500
2018-03-08T09:55:50.935Z,1508
2018-03-08T09:56:31.807Z,1536
2018-03-08T09:57:12.093Z,1564
2018-03-08T09:57:53.360Z,1600
2018-03-08T09:58:34.882Z,1608
2018-03-08T09:59:15.643Z,1620
2018-03-08T09:59:56.110Z,1636
2018-03-08T10:00:36.570Z,1652
2018-03-08T10:01:17.386Z,1676
2018-03-08T10:01:58.423Z,1712
2018-03-08T10:02:40.154Z,1728
2018-03-08T10:03:21.369Z,1740
2018-03-08T10:04:02.162Z,1728
2018-03-08T10:04:42.773Z,1724
2018-03-08T10:05:24.437Z,1720
2018-03-08T10:06:05.047Z,1728
2018-03-08T10:06:45.262Z,1736
2018-03-08T10:07:25.944Z,1672
2018-03-08T10:08:06.604Z,1672
2018-03-08T10:08:47.163Z,1700
2018-03-08T10:09:28.054Z,1700
2018-03-08T10:10:09.034Z,1684
2018-03-08T10:47:51.065Z,1748
2018-03-08T10:48:33.124Z,1772
2018-03-08T10:49:40.071Z,1568
2018-03-08T10:55:46.241Z,1888
2018-03-08T10:56:27.252Z,1848
2018-03-08T10:57:07.708Z,2068
2018-03-08T10:57:48.468Z,2196
2018-03-08T10:58:28.745Z,2088
2018-03-08T10:59:09.767Z,2044
2018-03-08T10:59:51.405Z,1964
2018-03-08T11:00:33.160Z,2092
2018-03-08T11:01:15.143Z,2196
2018-03-08T11:01:56.128Z,2172
2018-03-08T11:02:37.859Z,2204
2018-03-08T11:03:19.480Z,2136
2018-03-08T11:04:01.137Z,2084
2018-03-08T11:04:42.190Z,2140
2018-03-08T11:05:26.984Z,2136
2018-03-08T11:06:08.303Z,2024
2018-03-08T11:06:48.998Z,2008
2018-03-08T11:07:32.282Z,2016
2018-03-08T11:08:13.222Z,1964
2018-03-08T11:08:53.771Z,1948
2018-03-08T11:09:35.863Z,1916
2018-03-08T11:10:16.871Z,1736
2018-03-08T11:10:59.522Z,1852
2018-03-08T11:11:40.761Z,1988
2018-03-08T11:12:22.073Z,1952
2018-03-08T11:13:03.701Z,1924
2018-03-08T11:13:45.447Z,1976
2018-03-08T11:14:26.847Z,2116
2018-03-08T11:15:07.333Z,2088
2018-03-08T11:15:51.406Z,2040
2018-03-08T11:16:33.725Z,2148